Time;durP1;ratioP1;P1;durP2;ratioP2;P2;SDS_P1;SDS_P2;PMS_P1;PMS_P2;Temp;Humidity;BMP_temperature;BMP_pressure;BME280_temperature;BME280_humidity;BME280_pressure;Samples;Min_cycle;Max_cycle;Signal;HPM_P1;HPM_P2
2022/11/12 00:01:43;;;;;;;12.43;8.88;;;3.50;99.90;;;;;;6165419;23;20022;-81
2022/11/12 00:04:29;;;;;;;12.70;9.75;;;3.70;99.90;;;;;;6156797;23;20349;-81
2022/11/12 00:07:15;;;;;;;117.55;13.23;;;3.80;99.90;;;;;;6161994;23;20029;-81
2022/11/12 00:10:01;;;;;;;68.63;13.98;;;3.60;99.90;;;;;;6161018;23;20072;-81
2022/11/12 00:12:48;;;;;;;120.85;15.70;;;3.30;99.90;;;;;;6155581;23;20349;-81
2022/11/12 00:15:34;;;;;;;68.18;14.35;;;3.20;99.90;;;;;;6128628;23;20033;-81
2022/11/12 00:18:21;;;;;;;22.70;9.43;;;3.40;99.90;;;;;;6142827;23;20021;-81
2022/11/12 00:21:06;;;;;;;101.63;13.05;;;3.50;99.90;;;;;;6131824;23;20021;-81
2022/11/12 00:23:52;;;;;;;39.22;9.10;;;3.60;99.90;;;;;;6159159;23;20022;-81
2022/11/12 00:26:38;;;;;;;35.38;10.05;;;3.60;99.90;;;;;;6162718;23;20028;-82
2022/11/12 00:29:24;;;;;;;120.63;19.10;;;3.50;99.90;;;;;;6129061;23;20026;-81
2022/11/12 00:32:10;;;;;;;18.30;6.57;;;3.10;99.90;;;;;;6157909;23;20025;-81
2022/11/12 00:34:56;;;;;;;34.03;9.70;;;2.80;99.90;;;;;;6163022;23;20472;-81
2022/11/12 00:37:52;;;;;;;52.08;10.43;;;2.70;99.90;;;;;;6164818;23;20022;-81
2022/11/12 00:40:41;;;;;;;71.85;12.25;;;2.80;99.90;;;;;;6156130;23;20446;-81
2022/11/12 00:43:27;;;;;;;51.88;9.10;;;3.00;99.90;;;;;;6128148;23;20025;-80
2022/11/12 00:46:13;;;;;;;54.53;11.68;;;3.20;99.90;;;;;;6163962;23;20024;-80
2022/11/12 00:49:00;;;;;;;84.38;15.38;;;3.40;99.90;;;;;;6133115;23;20025;-86
2022/11/12 00:51:46;;;;;;;50.38;8.95;;;3.40;99.90;;;;;;6137824;23;20345;-86
2022/11/12 00:54:32;;;;;;;23.92;6.95;;;3.30;99.90;;;;;;6164012;23;20020;-85
2022/11/12 00:57:18;;;;;;;21.83;8.60;;;3.10;99.90;;;;;;6139016;23;20030;-78
2022/11/12 01:00:05;;;;;;;14.57;7.43;;;3.00;99.90;;;;;;6158084;23;20036;-79
2022/11/12 01:02:52;;;;;;;12.30;6.90;;;3.00;99.90;;;;;;6162706;23;20013;-79
2022/11/12 01:05:38;;;;;;;51.22;13.30;;;2.90;99.90;;;;;;6164725;23;20025;-79
2022/11/12 01:08:27;;;;;;;177.88;15.77;;;2.90;99.90;;;;;;6136517;23;20030;-79
2022/11/12 01:11:20;;;;;;;33.00;9.98;;;3.10;99.90;;;;;;6136572;23;20029;-79
2022/11/12 01:14:08;;;;;;;47.67;11.40;;;3.30;99.90;;;;;;6166517;23;20025;-79
2022/11/12 01:16:54;;;;;;;25.98;8.80;;;3.50;99.90;;;;;;6129949;23;20033;-79
2022/11/12 01:19:43;;;;;;;48.00;12.85;;;3.70;99.90;;;;;;6161586;23;20485;-79
2022/11/12 01:22:29;;;;;;;21.27;11.57;;;3.60;99.90;;;;;;6144543;23;20017;-79
2022/11/12 01:25:15;;;;;;;20.40;9.00;;;3.60;99.90;;;;;;6138383;23;20022;-79
2022/11/12 01:28:01;;;;;;;35.22;11.02;;;3.60;99.90;;;;;;6129601;23;20025;-79
2022/11/12 01:30:47;;;;;;;14.30;8.90;;;3.50;99.90;;;;;;6165060;23;20009;-79
2022/11/12 01:33:33;;;;;;;25.80;9.15;;;3.50;99.90;;;;;;6130519;23;20017;-79
2022/11/12 01:36:20;;;;;;;75.90;12.10;;;3.50;99.90;;;;;;6158666;23;20045;-79
2022/11/12 01:39:07;;;;;;;22.40;9.00;;;3.40;99.90;;;;;;6163798;23;20025;-79
2022/11/12 01:41:53;;;;;;;22.42;11.88;;;3.40;99.90;;;;;;6166110;23;20021;-79
2022/11/12 01:44:43;;;;;;;26.17;10.32;;;3.40;99.90;;;;;;6157136;23;20373;-79
2022/11/12 01:47:33;;;;;;;44.15;12.55;;;3.30;99.90;;;;;;6160977;23;20457;-79
2022/11/12 01:50:26;;;;;;;78.53;14.60;;;3.40;99.90;;;;;;6130367;23;20013;-79
2022/11/12 01:53:13;;;;;;;73.55;14.32;;;3.60;99.90;;;;;;6138765;23;20026;-79
2022/11/12 01:56:01;;;;;;;21.10;12.25;;;3.90;99.90;;;;;;6129492;23;20033;-79
2022/11/12 01:58:51;;;;;;;38.80;11.73;;;4.20;99.90;;;;;;6164640;23;20036;-79
2022/11/12 02:01:37;;;;;;;15.98;9.60;;;4.30;99.90;;;;;;6165051;23;20464;-79
2022/11/12 02:04:25;;;;;;;22.10;10.57;;;4.20;99.90;;;;;;6136025;23;20346;-79
2022/11/12 02:07:11;;;;;;;49.38;15.65;;;4.10;99.90;;;;;;6160632;23;20021;-79
2022/11/12 02:10:00;;;;;;;29.50;11.90;;;3.90;99.90;;;;;;6129920;23;20465;-79
2022/11/12 02:15:54;;;;;;;29.83;11.15;;;3.80;99.90;;;;;;6160308;23;20342;-79
2022/11/12 02:18:40;;;;;;;32.40;9.02;;;3.70;99.90;;;;;;6163762;23;20017;-79
2022/11/12 02:21:27;;;;;;;14.30;9.27;;;3.70;99.90;;;;;;6166139;23;20444;-79
2022/11/12 02:24:13;;;;;;;20.80;10.77;;;3.80;99.90;;;;;;6158810;23;20032;-79
2022/11/12 02:26:59;;;;;;;41.63;9.18;;;3.80;99.90;;;;;;6163533;23;20041;-79
2022/11/12 02:29:45;;;;;;;33.63;10.18;;;3.80;99.90;;;;;;6166085;23;20021;-79
2022/11/12 02:32:32;;;;;;;13.65;9.00;;;3.70;99.90;;;;;;6156594;23;20021;-79
2022/11/12 02:35:18;;;;;;;88.63;11.40;;;3.60;99.90;;;;;;6162532;23;20025;-79
2022/11/12 02:38:05;;;;;;;99.57;13.23;;;3.70;99.90;;;;;;6144216;23;20025;-79
2022/11/12 02:40:52;;;;;;;65.88;11.02;;;3.60;99.90;;;;;;6156648;23;20036;-79
2022/11/12 02:43:38;;;;;;;38.97;10.75;;;3.60;99.90;;;;;;6160891;23;20362;-79
2022/11/12 02:46:24;;;;;;;39.78;10.38;;;3.60;99.90;;;;;;6166114;23;20017;-79
2022/11/12 02:49:10;;;;;;;30.85;11.07;;;3.60;99.90;;;;;;6138202;23;20025;-79
2022/11/12 02:51:56;;;;;;;31.13;10.13;;;3.70;99.90;;;;;;6129146;23;20029;-79
2022/11/12 02:54:42;;;;;;;18.38;10.05;;;3.70;99.90;;;;;;6129088;23;20021;-80
2022/11/12 02:57:29;;;;;;;38.35;11.68;;;3.70;99.90;;;;;;6165733;23;20009;-79
2022/11/12 03:00:15;;;;;;;47.85;11.40;;;3.70;99.90;;;;;;6158119;23;20025;-79
2022/11/12 03:03:01;;;;;;;34.10;10.82;;;3.70;99.90;;;;;;6163751;23;20453;-79
2022/11/12 03:05:59;;;;;;;103.82;14.13;;;3.60;99.90;;;;;;6144284;23;20017;-79
2022/11/12 03:08:45;;;;;;;17.17;11.23;;;3.60;99.90;;;;;;6134415;23;20036;-79
2022/11/12 03:11:31;;;;;;;11.70;9.20;;;3.40;99.90;;;;;;6128987;23;20021;-79
2022/11/12 03:14:18;;;;;;;18.05;10.10;;;3.40;99.90;;;;;;6130131;23;20017;-79
2022/11/12 03:17:04;;;;;;;28.17;9.65;;;3.30;99.90;;;;;;6108026;23;20029;-79
2022/11/12 03:19:50;;;;;;;20.88;10.25;;;3.20;99.90;;;;;;6108475;23;20033;-79
2022/11/12 03:22:37;;;;;;;46.67;10.45;;;3.20;99.90;;;;;;6128814;23;20445;-79
2022/11/12 03:25:25;;;;;;;34.70;8.25;;;3.10;99.90;;;;;;6129705;23;20021;-79
2022/11/12 03:28:13;;;;;;;87.20;10.95;;;3.00;99.90;;;;;;6156062;23;20022;-79
2022/11/12 03:31:00;;;;;;;11.93;8.65;;;2.90;99.90;;;;;;6128915;23;20025;-79
2022/11/12 03:33:46;;;;;;;11.27;8.85;;;2.90;99.90;;;;;;6165753;23;20025;-79
2022/11/12 03:36:31;;;;;;;13.77;9.88;;;3.00;99.90;;;;;;6128956;23;20022;-79
2022/11/12 03:39:18;;;;;;;12.88;8.73;;;3.00;99.90;;;;;;6129172;23;20346;-79
2022/11/12 03:42:05;;;;;;;12.38;7.78;;;3.00;99.90;;;;;;6154587;23;20045;-79
2022/11/12 03:44:51;;;;;;;21.88;10.73;;;3.00;99.90;;;;;;6129118;23;20025;-79
2022/11/12 03:47:41;;;;;;;18.38;8.95;;;2.90;99.90;;;;;;6128873;23;20029;-79
2022/11/12 03:50:28;;;;;;;25.50;9.57;;;3.00;99.90;;;;;;6143494;23;20013;-79
2022/11/12 03:53:14;;;;;;;28.38;9.43;;;3.00;99.90;;;;;;6088585;23;20025;-79
2022/11/12 03:56:00;;;;;;;19.70;9.93;;;3.00;99.90;;;;;;6128645;23;20029;-79
2022/11/12 03:58:46;;;;;;;19.98;9.15;;;3.00;99.90;;;;;;6163550;23;20032;-79
2022/11/12 04:01:32;;;;;;;69.18;13.15;;;3.00;99.90;;;;;;6129620;23;20025;-79
2022/11/12 04:04:18;;;;;;;38.70;11.85;;;3.00;99.90;;;;;;6128605;23;20684;-79
2022/11/12 04:10:09;;;;;;;32.85;9.20;;;2.90;99.90;;;;;;6128773;23;20021;-79
2022/11/12 04:22:15;;;;;;;29.80;9.07;;;2.80;99.90;;;;;;6165088;23;20334;-81
2022/11/12 04:28:05;;;;;;;9.68;7.93;;;2.40;99.90;;;;;;6157869;23;20025;-81
2022/11/12 04:30:51;;;;;;;11.07;7.88;;;2.40;99.90;;;;;;6128451;23;20021;-81
2022/11/12 04:33:37;;;;;;;13.10;10.32;;;2.50;99.90;;;;;;6163718;23;20028;-81
2022/11/12 04:36:23;;;;;;;10.63;8.88;;;2.60;99.90;;;;;;6134999;23;20033;-81
2022/11/12 04:39:09;;;;;;;10.88;8.20;;;2.70;99.90;;;;;;6160713;23;20032;-81
2022/11/12 04:45:03;;;;;;;11.85;8.43;;;2.90;99.90;;;;;;6155868;23;20017;-81
2022/11/12 04:47:49;;;;;;;9.32;8.45;;;3.00;99.90;;;;;;6161277;23;20681;-81
2022/11/12 04:50:36;;;;;;;10.25;8.38;;;3.20;99.90;;;;;;6166135;23;20021;-82
2022/11/12 04:53:22;;;;;;;6.97;5.88;;;3.30;99.90;;;;;;6130782;23;20018;-81
2022/11/12 04:56:08;;;;;;;14.95;7.22;;;3.30;99.90;;;;;;6138052;23;20018;-81
2022/11/12 04:58:54;;;;;;;9.55;7.00;;;3.30;99.90;;;;;;6165183;23;20021;-82
2022/11/12 05:01:40;;;;;;;7.45;6.25;;;2.80;99.90;;;;;;6166757;23;20017;-81
2022/11/12 05:04:27;;;;;;;6.45;5.85;;;2.50;99.90;;;;;;6158828;23;20025;-81
2022/11/12 05:07:13;;;;;;;6.05;5.45;;;2.40;99.90;;;;;;6130310;23;20026;-81
2022/11/12 05:09:59;;;;;;;7.28;5.93;;;2.40;99.90;;;;;;6130448;23;20342;-81
2022/11/12 05:12:46;;;;;;;5.53;4.95;;;2.40;99.90;;;;;;6157388;23;20022;-81
2022/11/12 05:15:32;;;;;;;8.75;6.40;;;2.50;99.90;;;;;;6161301;23;20032;-81
2022/11/12 05:18:18;;;;;;;9.48;5.55;;;2.60;99.90;;;;;;6130526;23;20032;-81
2022/11/12 05:22:04;;;;;;;20.70;6.53;;;2.70;99.90;;;;;;6129771;23;20025;-81
2022/11/12 05:24:10;;;;;;;5.53;5.00;;;2.60;99.90;;;;;;6130129;23;20032;-81
2022/11/12 05:27:18;;;;;;;6.43;5.55;;;2.50;99.90;;;;;;6162972;23;20021;-81
2022/11/12 05:30:05;;;;;;;5.47;4.78;;;2.60;99.90;;;;;;6165578;23;20025;-81
2022/11/12 05:32:51;;;;;;;6.20;4.40;;;2.70;99.90;;;;;;6129792;23;20025;-81
2022/11/12 05:35:37;;;;;;;5.70;5.20;;;2.80;99.90;;;;;;6129936;23;20022;-81
2022/11/12 05:38:23;;;;;;;8.50;5.55;;;2.80;99.90;;;;;;6166548;23;20021;-81
2022/11/12 05:41:09;;;;;;;16.60;7.25;;;2.70;99.90;;;;;;6138516;23;20349;-81
2022/11/12 05:43:55;;;;;;;6.20;5.03;;;2.60;99.90;;;;;;6159472;23;20021;-81
2022/11/12 05:46:41;;;;;;;5.03;4.53;;;2.30;99.90;;;;;;6129616;23;20017;-82
2022/11/12 05:49:29;;;;;;;7.30;5.45;;;2.00;99.90;;;;;;6130670;23;20503;-81
2022/11/12 05:52:15;;;;;;;6.13;4.35;;;1.70;99.90;;;;;;6158762;23;20021;-81
2022/11/12 05:55:01;;;;;;;7.00;4.47;;;1.60;99.90;;;;;;6164380;23;20019;-81
2022/11/12 05:57:47;;;;;;;7.57;6.25;;;1.60;99.90;;;;;;6166115;23;20020;-81
2022/11/12 06:00:40;;;;;;;8.98;6.00;;;1.70;99.90;;;;;;6156966;23;20026;-81
2022/11/12 06:03:27;;;;;;;5.95;4.90;;;1.80;99.90;;;;;;6162691;23;20025;-81
2022/11/12 06:06:13;;;;;;;5.68;4.90;;;2.00;99.90;;;;;;6166364;23;20517;-81
2022/11/12 06:08:59;;;;;;;6.50;4.75;;;2.00;99.90;;;;;;6156124;23;20048;-82
2022/11/12 06:11:45;;;;;;;7.10;5.82;;;2.00;99.90;;;;;;6129720;23;20665;-81
2022/11/12 06:14:31;;;;;;;7.63;6.80;;;2.00;99.90;;;;;;6165053;23;20013;-81
2022/11/12 06:17:17;;;;;;;4.75;4.22;;;1.80;99.90;;;;;;6139815;23;20516;-81
2022/11/12 06:20:04;;;;;;;6.68;5.15;;;1.70;99.90;;;;;;6129668;23;20026;-81
2022/11/12 06:22:50;;;;;;;5.13;4.50;;;1.60;99.90;;;;;;6129596;23;20022;-81
2022/11/12 06:25:36;;;;;;;5.00;4.55;;;1.60;99.90;;;;;;6166285;23;20334;-81
2022/11/12 06:28:21;;;;;;;7.85;3.90;;;1.60;99.90;;;;;;6129362;23;20028;-81
2022/11/12 06:31:07;;;;;;;4.57;4.18;;;1.60;99.90;;;;;;6163206;23;20355;-81
2022/11/12 06:33:53;;;;;;;6.65;4.75;;;1.70;99.90;;;;;;6130058;23;20017;-82
2022/11/12 06:36:39;;;;;;;5.93;4.88;;;1.70;99.90;;;;;;6129830;23;20025;-81
2022/11/12 06:39:26;;;;;;;7.20;4.07;;;1.70;99.90;;;;;;6129212;23;20021;-81
2022/11/12 06:42:12;;;;;;;6.93;5.32;;;1.70;99.90;;;;;;6130008;23;20017;-81
2022/11/12 06:44:58;;;;;;;5.97;4.25;;;1.60;99.90;;;;;;6154887;23;20040;-81
2022/11/12 06:47:44;;;;;;;4.95;4.43;;;1.60;99.90;;;;;;6160436;23;20030;-81
2022/11/12 06:50:30;;;;;;;5.30;4.55;;;1.50;99.90;;;;;;6159167;23;20021;-81
2022/11/12 06:53:16;;;;;;;4.15;3.70;;;1.40;99.90;;;;;;6116648;23;20021;-81
2022/11/12 06:56:04;;;;;;;5.85;3.70;;;1.30;99.90;;;;;;6129282;23;20024;-81
2022/11/12 06:58:50;;;;;;;7.30;4.68;;;1.30;99.90;;;;;;6108671;23;20025;-81
2022/11/12 07:01:36;;;;;;;6.68;5.15;;;1.20;99.90;;;;;;6165993;23;20010;-81
2022/11/12 07:04:23;;;;;;;6.07;4.57;;;1.30;99.90;;;;;;6129322;23;20082;-80
2022/11/12 07:07:09;;;;;;;4.72;3.65;;;1.30;99.90;;;;;;6162728;23;20353;-80
2022/11/12 07:09:56;;;;;;;4.43;4.03;;;1.40;99.90;;;;;;6163351;23;20330;-80
2022/11/12 07:12:42;;;;;;;5.53;4.50;;;1.30;99.90;;;;;;6156395;23;20469;-80
2022/11/12 07:15:28;;;;;;;3.78;3.42;;;1.30;99.90;;;;;;6160690;23;20044;-80
2022/11/12 07:18:14;;;;;;;4.88;4.32;;;1.30;99.90;;;;;;6165752;23;20021;-80
2022/11/12 07:21:02;;;;;;;4.75;4.35;;;1.30;99.90;;;;;;6152057;23;20025;-80
2022/11/12 07:23:48;;;;;;;4.43;4.03;;;1.30;99.90;;;;;;6160076;23;20465;-80
2022/11/12 07:26:34;;;;;;;4.65;4.22;;;1.40;99.90;;;;;;6143422;23;20330;-80
2022/11/12 07:29:20;;;;;;;6.47;5.50;;;1.40;99.90;;;;;;6162621;23;20025;-80
2022/11/12 07:32:26;;;;;;;4.40;3.90;;;1.50;99.90;;;;;;6157096;23;20014;-80
2022/11/12 07:35:12;;;;;;;5.68;4.15;;;1.60;99.90;;;;;;6128853;23;20033;-79
2022/11/12 07:37:58;;;;;;;4.18;3.88;;;1.60;99.90;;;;;;6164229;23;20025;-79
2022/11/12 07:40:44;;;;;;;4.80;4.30;;;1.60;99.90;;;;;;6153836;23;20078;-81
2022/11/12 07:43:32;;;;;;;4.65;4.25;;;1.60;99.90;;;;;;6161406;23;20033;-80
2022/11/12 07:46:24;;;;;;;4.95;4.55;;;1.50;99.90;;;;;;6143552;23;20029;-80
2022/11/12 07:49:10;;;;;;;4.78;4.25;;;1.60;99.90;;;;;;6092943;23;20032;-80
2022/11/12 07:51:56;;;;;;;4.93;4.53;;;1.70;99.90;;;;;;6108714;23;20375;-80
2022/11/12 07:54:42;;;;;;;5.82;5.20;;;1.80;99.90;;;;;;6164151;23;20764;-81
2022/11/12 07:57:34;;;;;;;4.80;4.28;;;1.90;99.90;;;;;;6162623;23;20014;-81
2022/11/12 08:00:22;;;;;;;4.05;3.75;;;2.10;99.90;;;;;;6128234;23;20018;-81
2022/11/12 08:03:08;;;;;;;5.93;5.32;;;2.10;99.90;;;;;;6162468;23;20030;-81
2022/11/12 08:05:54;;;;;;;4.88;4.53;;;2.20;99.90;;;;;;6129074;23;20024;-81
2022/11/12 08:08:40;;;;;;;4.50;4.05;;;2.30;99.90;;;;;;6128579;23;20341;-81
2022/11/12 08:11:27;;;;;;;5.40;4.90;;;2.50;99.90;;;;;;6156077;23;20022;-81
2022/11/12 08:14:12;;;;;;;4.90;3.75;;;2.70;99.90;;;;;;6108564;23;20014;-81
2022/11/12 08:16:58;;;;;;;5.47;4.97;;;2.60;99.90;;;;;;6154805;23;20029;-81
2022/11/12 08:19:54;;;;;;;5.95;5.35;;;2.60;99.90;;;;;;6128298;23;20032;-81
2022/11/12 08:22:40;;;;;;;5.25;4.80;;;2.60;99.90;;;;;;6163136;23;20028;-81
2022/11/12 08:25:33;;;;;;;4.72;4.32;;;2.70;99.90;;;;;;6126428;23;20033;-81
2022/11/12 08:28:19;;;;;;;5.32;4.55;;;2.90;99.90;;;;;;6132396;23;20028;-81
2022/11/12 08:31:09;;;;;;;5.38;4.55;;;3.00;99.90;;;;;;6160210;23;20075;-81
2022/11/12 08:33:54;;;;;;;4.90;4.30;;;3.00;99.90;;;;;;6140284;23;20021;-81
2022/11/12 08:36:41;;;;;;;5.93;5.32;;;3.10;99.90;;;;;;6153908;23;20052;-81
2022/11/12 08:39:27;;;;;;;5.40;5.00;;;3.20;99.90;;;;;;6125114;23;20053;-81
2022/11/12 08:42:13;;;;;;;4.38;4.07;;;3.30;99.90;;;;;;6162224;23;20024;-81
2022/11/12 08:45:02;;;;;;;6.45;5.93;;;3.40;99.90;;;;;;6153037;23;20327;-81
2022/11/12 08:47:51;;;;;;;;;;;3.70;99.90;;;;;;6127908;23;20041;-81
2022/11/12 08:50:37;;;;;;;5.75;5.25;;;3.90;99.90;;;;;;6152107;23;19929;-82
2022/11/12 08:53:24;;;;;;;6.22;5.63;;;4.20;99.90;;;;;;6128885;23;20349;-81
2022/11/12 08:56:10;;;;;;;4.88;4.45;;;4.40;99.90;;;;;;6156558;23;20025;-82
2022/11/12 08:58:56;;;;;;;6.00;5.50;;;4.60;99.90;;;;;;6162966;23;20030;-81
2022/11/12 09:01:42;;;;;;;4.43;4.13;;;4.80;99.90;;;;;;6165165;23;20022;-81
2022/11/12 09:04:28;;;;;;;5.47;5.05;;;5.10;99.90;;;;;;6134976;23;20025;-82
2022/11/12 09:07:13;;;;;;;6.18;5.68;;;5.30;99.90;;;;;;6128173;23;20025;-81
2022/11/12 09:10:20;;;;;;;4.43;4.05;;;5.40;99.90;;;;;;6127756;23;20032;-81
2022/11/12 09:13:06;;;;;;;6.82;6.22;;;5.60;99.90;;;;;;6154238;23;20454;-82
2022/11/12 09:15:52;;;;;;;5.45;4.55;;;5.70;99.90;;;;;;6132378;23;20736;-82
2022/11/12 09:18:38;;;;;;;4.45;4.10;;;5.90;99.90;;;;;;6142371;23;20021;-82
2022/11/12 09:21:24;;;;;;;5.18;4.72;;;6.30;99.90;;;;;;6108248;23;20026;-82
2022/11/12 09:24:10;;;;;;;4.15;3.83;;;6.60;99.90;;;;;;6157790;23;20353;-81
2022/11/12 09:26:56;;;;;;;4.03;3.70;;;6.80;99.90;;;;;;6161566;23;20026;-85
2022/11/12 09:29:42;;;;;;;4.57;4.20;;;6.80;99.90;;;;;;6110347;23;20026;-86
2022/11/12 09:32:29;;;;;;;5.28;4.30;;;6.80;99.90;;;;;;6157070;23;20032;-79
2022/11/12 09:35:15;;;;;;;6.13;3.88;;;7.00;99.90;;;;;;6162221;23;20027;-79
2022/11/12 09:38:01;;;;;;;4.40;4.00;;;7.10;99.90;;;;;;6130713;23;20024;-79
2022/11/12 09:40:50;;;;;;;4.30;3.90;;;7.10;99.90;;;;;;6130163;23;20017;-79
2022/11/12 09:43:42;;;;;;;3.78;3.47;;;7.10;99.90;;;;;;6129997;23;20021;-79
2022/11/12 09:46:52;;;;;;;6.03;5.40;;;7.20;99.90;;;;;;6130470;23;20025;-79
2022/11/12 09:49:53;;;;;;;4.25;3.95;;;7.30;99.90;;;;;;6145315;23;20029;-79
2022/11/12 09:52:42;;;;;;;4.30;4.00;;;7.40;99.90;;;;;;6130301;23;20025;-79
2022/11/12 09:55:44;;;;;;;5.63;3.60;;;7.50;99.90;;;;;;6162077;23;20021;-79
2022/11/12 09:58:30;;;;;;;5.78;4.35;;;7.50;99.90;;;;;;6130084;23;20036;-79
2022/11/12 10:01:42;;;;;;;3.83;3.45;;;7.50;99.90;;;;;;6140234;23;20036;-79
2022/11/12 10:04:34;;;;;;;;;;;7.60;99.90;;;;;;6158584;23;20026;-79
2022/11/12 10:07:45;;;;;;;4.75;4.35;;;7.80;99.90;;;;;;6129443;23;19927;-80
2022/11/12 10:10:43;;;;;;;6.32;5.72;;;7.70;99.90;;;;;;6154920;23;20377;-79
2022/11/12 10:14:07;;;;;;;5.00;3.75;;;7.80;99.90;;;;;;6122085;23;20032;-79
2022/11/12 10:17:18;;;;;;;4.03;3.70;;;7.80;99.90;;;;;;6129996;23;20017;-80
2022/11/12 10:20:22;;;;;;;5.15;4.75;;;7.90;99.90;;;;;;6159702;23;20025;-79
2022/11/12 10:23:18;;;;;;;5.15;4.70;;;8.00;99.90;;;;;;6162310;23;20029;-80
2022/11/12 10:26:16;;;;;;;5.75;4.47;;;8.10;99.90;;;;;;6130154;23;20045;-79
2022/11/12 10:29:02;;;;;;;5.97;4.75;;;8.20;99.90;;;;;;6155481;23;20018;-79
2022/11/12 10:31:48;;;;;;;6.88;4.43;;;8.30;99.90;;;;;;6129681;23;20025;-80
2022/11/12 10:34:34;;;;;;;5.07;4.68;;;8.50;99.90;;;;;;6129897;23;20025;-79
2022/11/12 10:37:26;;;;;;;5.57;4.00;;;8.60;99.90;;;;;;6139987;23;20033;-79
2022/11/12 10:40:27;;;;;;;5.30;4.65;;;8.70;99.90;;;;;;6129604;23;20026;-80
2022/11/12 10:43:16;;;;;;;5.17;4.67;;;8.80;99.90;;;;;;6141175;23;20036;-79
2022/11/12 10:46:18;;;;;;;6.55;5.97;;;8.90;99.90;;;;;;6166166;23;20244;-79
2022/11/12 10:49:13;;;;;;;7.00;6.53;;;8.90;99.90;;;;;;6129291;23;20025;-80
2022/11/12 10:51:59;;;;;;;5.15;4.65;;;8.90;99.90;;;;;;6129536;23;20342;-79
2022/11/12 10:54:45;;;;;;;4.65;4.15;;;8.80;99.90;;;;;;6129088;23;20017;-80
2022/11/12 10:57:38;;;;;;;6.22;4.70;;;8.90;99.90;;;;;;6166001;23;20024;-80
2022/11/12 11:00:24;;;;;;;5.10;4.60;;;8.90;99.90;;;;;;6129753;23;20025;-80
2022/11/12 11:03:24;;;;;;;6.40;4.70;;;9.00;99.90;;;;;;6129493;23;20025;-80
2022/11/12 11:06:14;;;;;;;5.60;4.65;;;9.20;99.90;;;;;;6164520;23;20025;-80
2022/11/12 11:09:12;;;;;;;6.57;4.75;;;9.30;99.90;;;;;;6128886;23;20026;-80
2022/11/12 11:11:59;;;;;;;4.28;3.85;;;9.40;99.90;;;;;;6098919;23;20018;-80
2022/11/12 11:14:46;;;;;;;8.35;4.28;;;9.70;99.90;;;;;;6133887;23;20010;-80
2022/11/12 11:17:33;;;;;;;5.60;4.65;;;9.80;99.90;;;;;;6099064;23;20033;-80
2022/11/12 11:20:27;;;;;;;6.45;5.80;;;9.60;99.90;;;;;;6105470;23;20030;-80
2022/11/12 11:23:19;;;;;;;4.97;4.47;;;9.70;99.90;;;;;;6098784;23;20033;-80
2022/11/12 11:26:13;;;;;;;;;;;9.60;99.90;;;;;;6135356;23;20442;-80
2022/11/12 11:29:12;;;;;;;5.05;4.55;;;9.60;99.90;;;;;;6124369;23;19917;-80
2022/11/12 11:32:37;;;;;;;4.80;4.40;;;9.50;99.90;;;;;;6098940;23;20351;-80
2022/11/12 11:35:48;;;;;;;6.45;5.95;;;9.60;99.90;;;;;;6131345;23;20464;-80
2022/11/12 11:38:48;;;;;;;11.23;9.93;;;9.70;99.90;;;;;;6099485;23;20028;-80
2022/11/12 11:42:00;;;;;;;6.47;5.30;;;9.80;99.90;;;;;;6087851;23;20458;-80
2022/11/12 11:45:07;;;;;;;12.35;5.47;;;10.00;99.90;;;;;;6126192;23;20438;-80
2022/11/12 11:48:05;;;;;;;4.72;4.32;;;10.00;99.90;;;;;;6128543;23;20470;-80
2022/11/12 11:51:03;;;;;;;6.40;5.72;;;10.00;99.90;;;;;;6132800;23;20020;-80
2022/11/12 11:54:07;;;;;;;5.53;5.05;;;10.10;99.90;;;;;;6134726;23;20013;-80
2022/11/12 11:56:59;;;;;;;4.75;4.35;;;10.10;99.90;;;;;;6125075;23;20018;-80
2022/11/12 11:59:50;;;;;;;5.20;4.43;;;10.20;99.90;;;;;;6098504;23;20026;-82
2022/11/12 12:02:58;;;;;;;7.90;5.43;;;10.30;99.90;;;;;;6098333;23;20018;-82
2022/11/12 12:06:12;;;;;;;4.80;4.40;;;10.30;99.90;;;;;;6099142;23;20029;-81
2022/11/12 12:09:21;;;;;;;4.78;4.38;;;10.30;99.90;;;;;;6124565;23;20030;-82
2022/11/12 12:12:25;;;;;;;6.30;5.78;;;10.50;99.90;;;;;;5094940;27;20146;-80
2022/11/12 12:15:20;;;;;;;10.13;4.78;;;10.70;99.90;;;;;;5051917;28;20505;-80
2022/11/12 12:18:20;;;;;;;5.53;5.03;;;10.60;99.90;;;;;;5038171;28;20068;-80
2022/11/12 12:21:14;;;;;;;3.78;3.47;;;10.60;99.90;;;;;;5071213;28;20497;-80
2022/11/12 12:24:14;;;;;;;3.25;2.85;;;10.60;99.90;;;;;;5095249;28;20043;-80
2022/11/12 12:27:11;;;;;;;3.97;3.58;;;10.50;99.90;;;;;;5069058;28;20056;-80
2022/11/12 12:30:13;;;;;;;5.32;4.80;;;10.60;99.90;;;;;;5088870;28;20057;-80
2022/11/12 12:33:09;;;;;;;5.22;4.72;;;10.50;99.90;;;;;;5089058;28;20040;-80
2022/11/12 12:36:01;;;;;;;4.57;4.18;;;10.60;99.90;;;;;;5074167;28;20068;-80
2022/11/12 12:38:54;;;;;;;4.97;4.55;;;10.70;99.90;;;;;;5088956;28;20048;-80
2022/11/12 12:41:46;;;;;;;6.15;5.22;;;10.80;99.90;;;;;;5103136;28;20470;-80
2022/11/12 12:45:00;;;;;;;5.28;4.80;;;10.80;99.90;;;;;;5088494;28;20068;-80
2022/11/12 12:47:48;;;;;;;5.82;4.38;;;10.90;99.90;;;;;;5108419;28;20036;-80
2022/11/12 12:50:39;;;;;;;6.82;5.25;;;11.00;99.90;;;;;;5097907;28;20089;-80
2022/11/12 12:53:27;;;;;;;6.20;5.55;;;11.00;99.90;;;;;;5063763;28;20044;-80
2022/11/12 12:56:13;;;;;;;4.55;4.20;;;10.90;99.90;;;;;;5108642;28;20055;-80
2022/11/12 12:59:02;;;;;;;6.05;5.38;;;10.90;99.90;;;;;;5102779;28;20394;-80
2022/11/12 13:02:02;;;;;;;3.80;3.50;;;10.80;99.90;;;;;;5088531;28;20044;-80
2022/11/12 13:04:56;;;;;;;4.60;4.20;;;10.70;99.90;;;;;;5078778;28;20032;-80
2022/11/12 13:07:44;;;;;;;6.70;5.03;;;10.70;99.90;;;;;;5093178;28;20043;-80
2022/11/12 13:10:33;;;;;;;5.63;5.05;;;10.70;99.90;;;;;;5100694;28;20055;-80
2022/11/12 13:13:19;;;;;;;5.68;4.68;;;10.80;99.90;;;;;;5102455;28;20494;-80
2022/11/12 13:16:07;;;;;;;7.10;4.18;;;10.70;99.90;;;;;;5104716;28;20044;-82
2022/11/12 13:18:52;;;;;;;10.02;4.65;;;10.60;99.90;;;;;;5104632;28;20044;-82
2022/11/12 13:21:38;;;;;;;6.45;5.45;;;10.60;99.90;;;;;;5070038;28;20056;-81
2022/11/12 13:25:02;;;;;;;4.82;4.43;;;10.60;99.90;;;;;;5093287;28;20040;-81
2022/11/12 13:27:47;;;;;;;5.78;5.28;;;10.70;99.90;;;;;;5090958;28;20060;-81
2022/11/12 13:30:55;;;;;;;5.28;4.78;;;10.60;99.90;;;;;;5094669;28;20040;-81
2022/11/12 13:33:41;;;;;;;5.13;4.72;;;10.60;99.90;;;;;;5093281;28;20389;-81
2022/11/12 13:36:47;;;;;;;;;;;;;;;;;;;;;
2022/11/12 14:20:25;;;;;;;7.32;5.93;;;9.80;99.90;;;;;;4699672;30;20049;-81
2022/11/12 14:23:20;;;;;;;5.05;4.70;;;9.80;99.90;;;;;;4687779;30;20049;-81
2022/11/12 14:26:11;;;;;;;5.95;5.22;;;9.90;99.90;;;;;;4685262;30;20057;-81
2022/11/12 14:28:58;;;;;;;6.40;5.80;;;9.80;99.90;;;;;;4683733;30;20533;-81
2022/11/12 14:31:44;;;;;;;4.95;4.45;;;9.70;99.90;;;;;;4679824;30;20050;-81
2022/11/12 14:34:32;;;;;;;7.00;5.57;;;9.60;99.90;;;;;;4698922;30;20053;-81
2022/11/12 14:37:36;;;;;;;5.75;5.15;;;9.50;99.90;;;;;;4679414;30;20061;-81
2022/11/12 14:40:31;;;;;;;5.80;5.30;;;9.50;99.90;;;;;;4656681;30;20057;-81
2022/11/12 14:43:29;;;;;;;6.85;6.25;;;9.40;99.90;;;;;;4679043;30;20064;-81
2022/11/12 14:46:28;;;;;;;7.95;7.20;;;9.40;99.90;;;;;;4673882;30;20073;-81
2022/11/12 14:49:30;;;;;;;6.47;4.90;;;9.30;99.90;;;;;;4684170;30;20061;-81
2022/11/12 14:52:28;;;;;;;6.30;5.68;;;9.30;99.90;;;;;;4683074;30;20054;-81
2022/11/12 14:55:19;;;;;;;7.68;6.97;;;9.20;99.90;;;;;;4682032;30;20065;-81
2022/11/12 14:58:05;;;;;;;7.18;5.60;;;9.20;99.90;;;;;;4683290;30;20069;-81
2022/11/12 15:00:52;;;;;;;11.40;5.57;;;9.10;99.90;;;;;;4681788;30;20050;-81
2022/11/12 15:03:38;;;;;;;6.13;5.63;;;9.10;99.90;;;;;;4681966;30;20405;-81
2022/11/12 15:06:30;;;;;;;6.85;4.65;;;8.90;99.90;;;;;;4668051;30;20064;-81
2022/11/12 15:09:20;;;;;;;;;;;8.80;99.90;;;;;;4667683;30;20065;-81
2022/11/12 15:12:11;;;;;;;9.10;5.07;;;8.70;99.90;;;;;;4669794;30;19931;-81
2022/11/12 15:15:16;;;;;;;8.32;5.85;;;8.50;99.90;;;;;;4682800;30;20064;-81
2022/11/12 15:18:05;;;;;;;6.00;4.78;;;8.40;99.90;;;;;;4669683;30;20061;-81
2022/11/12 15:21:23;;;;;;;7.03;6.20;;;8.20;99.90;;;;;;4669505;30;20066;-81
2022/11/12 15:24:24;;;;;;;6.50;5.90;;;8.20;99.90;;;;;;4682553;30;20050;-81
2022/11/12 15:27:35;;;;;;;5.33;4.93;;;8.00;99.90;;;;;;4667073;30;20069;-81
2022/11/12 15:30:26;;;;;;;5.40;4.88;;;8.00;99.90;;;;;;4683184;30;20761;-81
2022/11/12 15:33:18;;;;;;;4.93;4.53;;;7.70;99.90;;;;;;4670384;30;20064;-81
2022/11/12 15:36:04;;;;;;;4.93;4.53;;;7.20;99.90;;;;;;4683782;30;20065;-78
2022/11/12 15:38:52;;;;;;;5.63;5.13;;;7.10;99.90;;;;;;4683848;30;20054;-81
2022/11/12 15:41:39;;;;;;;6.72;6.18;;;6.90;99.90;;;;;;4672490;30;20080;-80
2022/11/12 15:44:29;;;;;;;5.78;5.15;;;6.90;99.90;;;;;;4671866;30;20057;-81
2022/11/12 15:47:22;;;;;;;6.05;5.00;;;6.90;99.90;;;;;;4686323;30;20127;-81
2022/11/12 15:50:20;;;;;;;4.93;4.53;;;6.80;99.90;;;;;;4684376;30;20062;-81
2022/11/12 15:53:06;;;;;;;6.43;5.20;;;6.70;99.90;;;;;;4684772;30;20509;-80
2022/11/12 15:55:52;;;;;;;6.90;5.25;;;6.60;99.90;;;;;;4698999;30;20069;-81